Date,TemperatureHighF,TemperatureAvgF,TemperatureLowF,DewpointHighF,DewpointAvgF,DewpointLowF,HumidityHigh,HumidityAvg,HumidityLow,PressureMaxIn,PressureMinIn,WindSpeedMaxMPH,WindSpeedAvgMPH,GustSpeedMaxMPH,PrecipitationSumIn
2013-1-1,32.0,27.1,21.0,32.0,26.2,19.0,99,96,90,0.00,40.00,10,4,16,0.00
2013-1-2,24.0,19.0,14.0,23.0,17.7,13.0,98,94,87,0.00,40.00,6,3,11,0.00
2013-1-3,30.0,22.1,11.0,28.0,20.4,10.0,98,92,74,0.00,40.00,11,5,20,0.00
2013-1-4,31.0,27.9,25.0,28.0,24.3,22.0,96,86,69,0.00,40.00,14,8,25,0.00
2013-1-5,37.0,30.4,23.0,32.0,27.5,22.0,96,89,76,0.00,40.00,10,5,16,0.00
2013-1-6,38.0,34.9,31.0,37.0,33.8,31.0,99,95,87,0.00,40.00,10,6,17,0.00
2013-1-7,39.0,32.8,30.0,35.0,30.5,29.0,98,91,72,0.00,40.00,15,6,23,0.00
2013-1-8,45.0,35.3,28.0,35.0,30.5,27.0,96,84,55,0.00,40.00,9,5,14,0.00
2013-1-9,48.0,41.7,35.0,44.0,37.3,33.0,96,84,70,0.00,40.00,14,7,25,0.00
2013-1-10,44.0,36.0,26.0,37.0,31.9,26.0,99,86,61,0.00,40.00,7,3,12,0.00
2013-1-11,58.0,50.6,43.0,57.0,47.0,31.0,99,88,57,0.00,40.00,17,8,24,0.00
2013-1-12,62.0,55.6,51.0,61.0,55.0,50.0,99,97,93,0.00,40.00,13,6,19,0.00
2013-1-13,65.0,52.2,37.0,64.0,51.9,37.0,99,98,95,0.00,40.00,17,7,27,0.00
2013-1-14,37.0,30.1,28.0,37.0,28.9,26.0,99,95,88,0.00,40.00,11,5,22,0.00
2013-1-15,34.0,29.0,27.0,29.0,26.6,24.0,94,90,77,0.00,40.00,7,3,12,0.00
2013-1-16,36.0,32.5,30.0,31.0,28.4,26.0,93,85,72,0.00,40.00,11,4,19,0.00
2013-1-17,38.0,34.2,26.0,35.0,30.1,22.0,94,85,74,0.00,40.00,15,5,22,0.00
2013-1-18,36.0,28.7,22.0,24.0,19.7,13.0,91,69,55,0.00,40.00,17,9,31,0.00
2013-1-19,52.0,44.7,36.0,33.0,28.8,24.0,63,53,47,0.00,40.00,16,10,30,0.00
2013-1-20,48.0,30.0,21.0,38.0,21.1,14.0,81,69,53,0.00,40.00,19,10,37,0.00
2013-1-21,23.0,18.6,11.0,17.0,12.7,6.0,93,77,61,0.00,40.00,14,7,26,0.00
2013-1-22,13.0,9.3,7.0,9.0,6.2,4.0,96,86,73,0.00,40.00,12,7,23,0.00
2013-1-23,18.0,12.7,8.0,15.0,9.3,4.0,97,86,75,0.00,40.00,8,4,14,0.00
2013-1-24,24.0,17.4,13.0,17.0,12.9,9.0,99,82,55,0.00,40.00,14,5,24,0.00
2013-1-25,21.0,17.1,14.0,20.0,15.4,11.0,98,92,79,0.00,40.00,7,3,14,0.00
2013-1-26,27.0,23.0,19.0,26.0,22.2,18.0,99,96,89,0.00,40.00,10,3,16,0.00
2013-1-27,33.0,24.6,12.0,30.0,20.4,11.0,98,85,64,0.00,40.00,9,4,17,0.00
2013-1-28,49.0,42.4,31.0,49.0,42.2,29.0,100,98,94,0.00,40.00,15,8,23,0.00
2013-1-29,62.0,52.9,39.0,60.0,52.5,39.0,99,98,90,0.00,40.00,18,7,26,0.00
2013-1-30,64.0,57.4,38.0,61.0,55.8,37.0,99,94,86,0.00,40.00,22,13,38,0.00
2013-1-31,38.0,24.4,19.0,37.0,21.3,12.0,98,88,70,0.00,40.00,15,10,28,0.00
2013-2-1,20.0,16.1,12.0,17.0,13.6,11.0,100,90,75,0.00,40.00,12,8,22,0.00
2013-2-2,24.0,18.8,14.0,24.0,17.8,11.0,99,95,86,0.00,40.00,11,5,17,0.00
2013-2-3,26.0,19.9,16.0,26.0,19.3,16.0,99,96,83,0.00,40.00,11,4,17,0.00
2013-2-4,28.0,22.3,18.0,28.0,22.0,18.0,99,98,97,0.00,40.00,7,3,14,0.00
2013-2-5,33.0,26.6,23.0,31.0,25.2,23.0,99,94,78,0.00,40.00,6,2,11,0.00
2013-2-6,38.0,27.3,19.0,29.0,22.0,16.0,99,82,46,0.00,40.00,12,3,19,0.00
2013-2-7,48.0,35.2,20.0,34.0,27.7,19.0,95,75,52,0.00,40.00,12,4,20,0.00
2013-2-8,43.0,32.9,26.0,41.0,31.9,26.0,100,96,80,0.00,40.00,19,11,30,0.00
2013-2-9,34.0,26.6,22.0,30.0,25.3,21.0,99,94,74,0.00,40.00,13,4,22,0.00
2013-2-10,52.0,37.9,20.0,39.0,26.2,20.0,99,66,38,0.00,40.00,18,7,27,0.00
2013-2-11,50.0,42.5,34.0,49.0,38.5,29.0,98,85,74,0.00,40.00,21,12,35,0.00
2013-2-12,38.0,32.5,25.0,31.0,28.5,24.0,95,84,72,0.00,40.00,11,4,23,0.00
2013-2-13,37.0,29.9,27.0,35.0,28.9,27.0,98,95,81,0.00,40.00,8,1,12,0.00
2013-2-14,41.0,34.9,27.0,40.0,34.5,27.0,99,98,93,0.00,40.00,17,8,27,0.00
2013-2-15,37.0,31.7,28.0,36.0,29.5,23.0,97,91,79,0.00,40.00,12,4,22,0.00
2013-2-16,31.0,24.8,20.0,28.0,23.1,19.0,100,93,69,0.00,40.00,11,3,18,0.00
2013-2-17,26.0,19.7,13.0,20.0,16.5,11.0,99,87,66,0.00,40.00,12,6,18,0.00
2013-2-18,48.0,29.4,10.0,36.0,21.1,8.0,94,73,52,0.00,40.00,18,10,32,0.00
2013-2-19,48.0,32.4,18.0,43.0,30.6,15.0,99,93,59,0.00,40.00,21,12,32,0.00
2013-2-20,23.0,20.1,17.0,21.0,17.7,15.0,99,90,78,0.00,40.00,14,8,26,0.00
2013-2-21,27.0,21.1,18.0,22.0,19.5,18.0,98,93,78,0.00,40.00,11,5,17,0.00
2013-2-22,40.0,30.8,20.0,39.0,30.2,19.0,99,97,90,0.00,40.00,13,6,21,0.00
2013-2-23,37.0,33.9,30.0,36.0,32.0,29.0,98,93,81,0.00,40.00,8,4,15,0.00
2013-2-24,35.0,31.1,27.0,30.0,28.0,25.0,94,88,76,0.00,40.00,10,5,18,0.00
2013-2-25,43.0,31.8,22.0,37.0,28.5,21.0,98,88,63,0.00,40.00,8,2,16,0.00
2013-2-26,39.0,33.7,27.0,38.0,31.5,26.0,99,91,72,0.00,40.00,15,6,27,0.00
2013-2-27,43.0,38.4,34.0,43.0,38.3,34.0,100,99,98,0.00,40.00,9,6,21,0.00
2013-2-28,35.0,33.5,31.0,35.0,33.5,31.0,99,99,99,0.00,40.00,14,7,23,0.00
2013-3-1,31.0,28.4,27.0,31.0,28.4,27.0,99,99,98,0.00,40.00,13,9,22,0.00
2013-3-2,30.0,26.8,24.0,30.0,26.7,24.0,99,99,98,0.00,40.00,12,6,17,0.00
2013-3-3,29.0,24.8,22.0,29.0,24.3,22.0,99,97,87,0.00,40.00,10,6,17,0.00
2013-3-4,36.0,26.6,18.0,33.0,24.0,18.0,99,90,66,0.00,40.00,7,2,11,0.00
2013-3-5,38.0,29.1,20.0,34.0,27.5,20.0,99,93,68,0.00,40.00,9,4,15,0.00
2013-3-6,44.0,35.5,32.0,40.0,33.8,31.0,99,93,77,0.00,40.00,9,5,16,0.00
2013-3-7,38.0,34.0,30.0,37.0,33.9,29.0,99,99,98,0.00,40.00,7,3,11,0.00
2013-3-8,39.0,31.0,26.0,38.0,30.7,26.0,99,98,96,0.00,40.00,6,2,11,0.00
2013-3-9,55.0,37.6,22.0,40.0,31.9,22.0,99,82,49,0.00,40.00,9,3,14,0.00
2013-3-10,67.0,59.1,52.0,41.0,38.9,35.0,61,47,38,0.00,40.00,13,9,20,0.00
2013-3-11,64.0,53.8,43.0,55.0,47.9,39.0,99,83,39,0.00,40.00,21,10,35,0.00
2013-3-12,42.0,36.9,34.0,42.0,36.0,33.0,98,96,95,0.00,40.00,12,6,21,0.00
2013-3-13,34.0,31.4,29.0,33.0,28.7,22.0,96,89,65,0.00,40.00,16,8,28,0.00
2013-3-14,39.0,32.0,26.0,28.0,24.7,20.0,91,74,60,0.00,40.00,12,6,22,0.00
2013-3-15,46.0,36.5,31.0,40.0,33.8,28.0,99,89,78,0.00,40.00,9,4,16,0.00
2013-3-16,36.0,32.6,29.0,36.0,32.6,29.0,99,99,99,0.00,40.00,12,4,22,0.00
2013-3-17,34.0,30.4,28.0,31.0,28.1,24.0,99,91,77,0.00,40.00,9,5,16,0.00
2013-3-18,46.0,35.8,27.0,46.0,34.3,23.0,99,93,81,0.00,40.00,16,8,24,0.00
2013-3-19,41.0,31.7,27.0,41.0,27.1,22.0,99,83,66,0.00,40.00,16,9,30,0.00
2013-3-20,32.0,28.3,23.0,26.0,22.6,18.0,96,79,65,0.00,40.00,11,6,20,0.00
2013-3-21,31.0,24.3,18.0,30.0,23.0,17.0,99,94,78,0.00,40.00,10,6,18,0.00
2013-3-22,40.0,29.9,26.0,30.0,27.3,26.0,100,90,66,0.00,40.00,9,4,15,0.00
2013-3-23,40.0,31.5,21.0,38.0,28.3,21.0,98,88,68,0.00,40.00,8,2,12,0.00
2013-3-24,36.0,31.3,26.0,32.0,27.8,25.0,98,87,65,0.00,40.00,12,6,20,0.00
2013-3-25,36.0,33.7,31.0,36.0,33.3,30.0,100,97,85,0.00,40.00,11,6,19,0.00
2013-3-26,42.0,36.3,33.0,40.0,35.4,33.0,99,96,76,0.00,40.00,12,4,20,0.00
2013-3-27,45.0,38.3,33.0,37.0,33.4,29.0,99,83,56,0.00,40.00,12,6,22,0.00
2013-3-28,46.0,40.0,35.0,36.0,33.6,32.0,90,78,65,0.00,40.00,12,5,20,0.00
2013-3-29,50.0,42.8,33.0,36.0,31.5,24.0,92,66,42,0.00,40.00,9,3,15,0.00
2013-3-30,58.0,42.8,28.0,36.0,30.1,27.0,95,64,36,0.00,40.00,9,3,21,0.00
2013-3-31,54.0,49.0,44.0,51.0,38.3,-99.9,94,69,50,0.00,40.00,10,5,19,0.00
2013-4-1,49.0,38.2,32.0,46.0,28.7,18.0,99,70,44,0.00,40.00,15,8,24,0.00
2013-4-2,41.0,33.6,28.0,30.0,21.1,17.0,93,61,43,0.00,40.00,12,6,22,0.00
2013-4-3,38.0,33.2,27.0,27.0,20.8,15.0,73,60,45,0.00,40.00,16,5,22,0.00
2013-4-4,59.0,38.5,23.0,26.0,20.3,16.0,77,51,21,0.00,40.00,9,3,14,0.00
2013-4-5,45.0,40.4,33.0,38.0,28.8,20.0,92,64,47,0.00,40.00,12,5,17,0.00
2013-4-6,57.0,42.0,25.0,26.0,22.2,16.0,90,51,26,0.00,40.00,14,6,21,0.00
2013-4-7,70.0,58.4,46.0,51.0,39.7,22.0,85,52,26,0.00,40.00,17,10,36,0.00
2013-4-8,72.0,57.4,40.0,62.0,49.3,39.0,96,76,55,0.00,40.00,16,7,30,0.00
2013-4-9,80.0,62.5,47.0,62.0,53.8,46.0,98,76,51,0.00,40.00,13,5,22,0.00
2013-4-10,68.0,50.8,41.0,67.0,49.9,41.0,99,96,85,0.00,40.00,17,4,30,0.00
2013-4-11,50.0,43.8,39.0,50.0,43.8,39.0,100,99,99,0.00,40.00,15,4,25,0.00
2013-4-12,49.0,43.3,41.0,49.0,42.2,37.0,100,95,83,0.00,40.00,12,5,24,0.00
2013-4-13,44.0,41.3,38.0,43.0,38.6,34.0,96,90,79,0.00,40.00,14,7,25,0.00
2013-4-14,57.0,45.3,34.0,44.0,38.0,32.0,95,77,54,0.00,40.00,9,3,14,0.00
2013-4-15,70.0,62.6,53.0,56.0,49.3,40.0,83,62,53,0.00,40.00,18,9,26,0.00
2013-4-16,68.0,58.6,51.0,65.0,56.3,51.0,99,92,81,0.00,40.00,17,6,25,0.00
2013-4-17,62.0,50.9,43.0,58.0,45.0,39.0,99,81,56,0.00,40.00,9,4,17,0.00
2013-4-18,85.0,71.2,51.0,67.0,61.6,47.0,94,74,40,0.00,40.00,22,11,34,0.00
2013-4-19,72.0,53.9,41.0,65.0,47.9,33.0,100,81,59,0.00,40.00,24,11,32,0.00
2013-4-20,45.0,38.9,34.0,37.0,32.4,28.0,96,77,59,0.00,40.00,14,7,25,0.00
2013-4-21,46.0,39.2,32.0,35.0,31.5,28.0,92,74,53,0.00,40.00,11,4,19,0.00
2013-4-22,66.0,51.0,37.0,45.0,36.2,30.0,80,58,37,0.00,40.00,11,5,17,0.00
2013-4-23,73.0,60.9,47.0,49.0,40.2,31.0,65,47,37,0.00,40.00,14,8,22,0.00
2013-4-24,62.0,47.5,37.0,58.0,46.1,37.0,100,95,67,0.00,40.00,14,7,20,0.00
2013-4-25,53.0,42.7,33.0,48.0,38.4,33.0,99,85,54,0.00,40.00,14,5,25,0.00
2013-4-26,60.0,46.1,31.0,46.0,35.0,31.0,99,70,35,0.00,40.00,6,1,12,0.00
2013-4-27,70.0,52.9,37.0,46.0,39.7,36.0,98,66,33,0.00,40.00,9,3,15,0.00
2013-4-28,58.0,54.9,47.0,58.0,51.1,-99.9,99,90,68,0.00,40.00,12,6,21,0.00
2013-4-29,69.0,60.9,56.0,62.0,58.1,55.0,99,91,70,0.00,40.00,12,4,18,0.00
2013-4-30,77.0,65.3,55.0,63.0,57.7,54.0,98,78,50,0.00,40.00,13,5,19,0.00
2013-5-1,82.0,70.2,58.0,61.0,57.1,53.0,92,65,41,0.00,40.00,11,6,19,0.00
2013-5-2,79.0,70.0,60.0,54.0,47.0,40.0,56,44,35,0.00,40.00,11,6,21,0.00
2013-5-3,78.0,69.1,60.0,49.0,43.6,39.0,56,40,28,0.00,40.00,14,9,25,0.00
2013-5-4,73.0,65.1,56.0,47.0,43.5,39.0,61,46,33,0.00,40.00,14,8,22,0.00
2013-5-5,76.0,65.7,56.0,46.0,42.3,34.0,63,44,25,0.00,40.00,13,7,22,0.00
2013-5-6,74.0,64.8,54.0,54.0,46.7,33.0,69,52,31,0.00,40.00,10,6,17,0.00
2013-5-7,72.0,64.9,59.0,61.0,57.8,54.0,93,78,59,0.00,40.00,9,4,14,0.00
2013-5-8,74.0,64.5,55.0,62.0,58.0,54.0,97,80,55,0.00,40.00,9,3,14,0.00
2013-5-9,80.0,68.3,57.0,64.0,52.2,40.0,99,64,24,0.00,40.00,9,2,14,0.00
2013-5-10,75.0,65.0,52.0,69.0,58.4,-99.9,99,85,39,0.00,40.00,12,6,29,0.00
2013-5-11,57.0,49.7,45.0,54.0,49.0,45.0,99,97,88,0.00,40.00,12,4,22,0.00
2013-5-12,52.0,44.3,39.0,45.0,35.7,-99.9,96,75,48,0.00,40.00,14,7,25,0.00
2013-5-13,52.0,44.5,35.0,36.0,31.7,27.0,92,62,39,0.00,40.00,12,4,19,0.00
2013-5-14,69.0,54.7,40.0,46.0,38.6,30.0,74,55,41,0.00,40.00,17,8,28,0.00
2013-5-15,86.0,72.0,60.0,64.0,56.1,45.0,85,59,33,0.00,40.00,14,7,27,0.00
2013-5-16,83.0,66.6,58.0,57.0,31.7,-99.9,86,53,28,0.00,40.00,8,2,13,0.00
2013-5-17,74.0,63.8,54.0,56.0,44.9,-99.9,80,58,43,0.00,40.00,10,4,16,0.00
2013-5-18,80.0,67.5,56.0,60.0,53.9,45.0,75,62,39,0.00,40.00,10,3,17,0.00
2013-5-19,84.0,73.8,64.0,71.0,66.5,57.0,96,79,57,0.00,40.00,10,4,15,0.00
2013-5-20,85.0,77.7,67.0,76.0,72.4,66.0,97,84,71,0.00,40.00,15,7,21,0.00
2013-5-21,89.0,79.8,73.0,75.0,70.1,65.0,96,75,47,0.00,40.00,12,7,22,0.00
2013-5-22,86.0,77.4,68.0,70.0,66.6,64.0,98,71,50,0.00,40.00,15,7,31,0.00
2013-5-23,76.0,61.1,43.0,68.0,59.4,43.0,99,94,65,0.00,40.00,16,7,25,0.00
2013-5-24,48.0,44.0,41.0,44.0,40.8,38.0,99,88,73,0.00,40.00,17,8,24,0.00
2013-5-25,62.0,49.7,35.0,49.0,39.7,35.0,99,72,46,0.00,40.00,11,4,18,0.00
2013-5-26,66.0,53.5,37.0,51.0,40.1,36.0,98,65,36,0.00,40.00,8,2,15,0.00
2013-5-27,60.0,53.4,41.0,55.0,47.8,40.0,97,82,50,0.00,40.00,10,4,16,0.00
2013-5-28,85.0,69.8,55.0,74.0,64.4,55.0,99,84,60,0.00,40.00,12,6,23,0.00
2013-5-29,89.0,78.5,71.0,75.0,68.2,64.0,96,71,51,0.00,40.00,12,6,20,0.00
2013-5-30,90.0,80.2,70.0,74.0,68.8,64.0,93,70,44,0.00,40.00,12,6,24,0.00
2013-5-31,89.0,77.0,68.0,74.0,69.2,67.0,99,78,52,0.00,40.00,12,6,22,0.00
2013-6-1,84.0,75.0,68.0,76.0,71.3,67.0,99,89,70,0.00,40.00,16,7,25,0.00
2013-6-2,79.0,70.4,62.0,68.0,63.5,-99.9,99,83,54,0.00,40.00,12,7,23,0.00
2013-6-3,63.0,57.7,53.0,60.0,50.4,42.0,94,78,48,0.00,40.00,9,5,17,0.00
2013-6-4,68.0,58.8,47.0,58.0,48.1,43.0,96,70,45,0.00,40.00,7,3,14,0.00
2013-6-5,74.0,62.7,51.0,59.0,52.1,47.0,93,70,44,0.00,40.00,11,4,17,0.00
2013-6-6,63.0,59.2,56.0,62.0,57.5,53.0,99,94,70,0.00,40.00,9,3,14,0.00
2013-6-7,60.0,56.8,55.0,60.0,56.5,55.0,99,99,96,0.00,40.00,7,3,11,0.00
2013-6-8,71.0,62.4,57.0,62.0,58.3,55.0,99,87,62,0.00,40.00,7,2,15,0.00
2013-6-9,81.0,70.1,57.0,67.0,61.6,55.0,93,76,52,0.00,40.00,9,4,16,0.00
2013-6-10,73.0,70.4,68.0,72.0,68.9,66.0,98,95,79,0.00,40.00,7,3,12,0.00
2013-6-11,81.0,71.5,66.0,71.0,67.6,65.0,99,88,66,0.00,40.00,9,4,16,0.00
2013-6-12,80.0,74.4,68.0,74.0,71.0,67.0,97,89,73,0.00,40.00,9,2,13,0.00
2013-6-13,74.0,67.4,61.0,72.0,64.5,59.0,99,91,67,0.00,40.00,16,8,32,0.00
2013-6-14,71.0,64.1,58.0,66.0,60.4,56.0,98,88,63,0.00,40.00,11,5,16,0.00
2013-6-15,82.0,67.3,50.0,67.0,57.7,50.0,99,75,42,0.00,40.00,7,2,16,0.00
2013-6-16,83.0,73.6,67.0,73.0,68.9,64.0,98,86,65,0.00,40.00,10,5,22,0.00
2013-6-17,84.0,73.9,66.0,74.0,67.3,62.0,99,81,53,0.00,40.00,8,3,14,0.00
2013-6-18,73.0,67.5,62.0,69.0,63.0,57.0,95,86,66,0.00,40.00,13,5,24,0.00
2013-6-19,73.0,64.7,54.0,60.0,54.1,49.0,99,71,49,0.00,40.00,10,4,16,0.00
2013-6-20,79.0,66.4,54.0,60.0,54.8,52.0,93,70,41,0.00,40.00,9,2,14,0.00
2013-6-22,92.0,87.4,80.0,75.0,73.4,72.0,79,63,54,0.00,40.00,12,6,19,0.00
2013-6-23,93.0,83.0,73.0,77.0,71.9,68.0,94,71,45,0.00,40.00,10,4,19,0.00
2013-6-24,92.0,79.8,71.0,74.0,70.0,68.0,93,73,46,0.00,40.00,9,4,16,0.00
2013-6-25,91.0,79.7,68.0,77.0,73.7,68.0,100,83,60,0.00,40.00,12,6,24,0.00
2013-6-26,86.0,75.2,68.0,75.0,70.9,68.0,99,87,62,0.00,40.00,8,3,20,0.00
2013-6-27,83.0,73.0,69.0,75.0,71.6,69.0,99,95,72,0.00,40.00,7,2,11,0.00
2013-6-28,81.0,70.5,66.0,73.0,67.4,63.0,99,90,62,0.00,40.00,9,3,17,0.00
2013-6-29,76.0,69.7,64.0,72.0,67.8,64.0,99,93,82,0.00,40.00,7,3,11,0.00
2013-6-30,74.0,69.2,65.0,71.0,67.8,65.0,98,95,90,0.00,40.00,9,4,16,0.00
2013-7-1,73.0,68.6,65.0,72.0,67.9,64.0,99,97,95,0.00,40.00,7,4,14,0.00
2013-7-2,78.0,69.0,64.0,73.0,67.6,64.0,99,95,82,0.00,40.00,9,3,12,0.00
2013-7-3,86.0,73.9,65.0,77.0,71.0,65.0,99,91,63,0.00,40.00,7,2,16,0.00
2013-7-4,81.0,76.5,71.0,76.0,72.8,70.0,99,88,75,0.00,40.00,10,5,17,0.00
2013-7-5,81.0,74.4,70.0,76.0,72.3,70.0,99,93,79,0.00,40.00,10,3,14,0.00
2013-7-6,86.0,76.6,70.0,78.0,73.6,70.0,98,91,70,0.00,40.00,7,3,20,0.00
2013-7-7,82.0,74.8,69.0,75.0,71.3,68.0,98,89,64,0.00,40.00,7,4,15,0.00
2013-7-8,88.0,72.1,67.0,78.0,69.9,66.0,99,93,68,0.00,40.00,9,3,17,0.00
2013-7-9,90.0,76.9,70.0,81.0,75.0,70.0,99,94,73,0.00,40.00,10,4,14,0.00
2013-7-10,87.0,72.6,69.0,83.0,69.3,-99.9,99,94,85,0.00,40.00,9,4,18,0.00
2013-7-11,76.0,71.1,67.0,71.0,65.0,61.0,98,82,63,0.00,40.00,9,4,15,0.00
2013-7-12,77.0,70.0,62.0,72.0,66.5,61.0,98,88,72,0.00,40.00,10,4,19,0.00
2013-7-13,83.0,76.4,63.0,74.0,70.6,62.0,97,82,65,0.00,40.00,9,4,17,0.00
2013-7-14,89.0,80.2,69.0,79.0,74.6,69.0,98,84,66,0.00,40.00,9,3,12,0.00
2013-7-15,92.0,82.2,76.0,79.0,76.8,74.0,95,85,57,0.00,40.00,6,2,10,0.00
2013-7-16,91.0,83.5,76.0,83.0,78.6,75.0,96,85,69,0.00,40.00,6,2,11,0.00
2013-7-17,96.0,85.0,77.0,80.0,77.2,74.0,97,80,50,0.00,40.00,6,2,12,0.00
2013-7-18,96.0,86.9,78.0,82.0,78.1,76.0,97,77,55,0.00,40.00,6,2,12,0.00
2013-7-19,94.0,85.9,79.0,82.0,79.1,76.0,94,81,58,0.00,40.00,11,6,22,0.00
2013-7-20,82.0,75.0,69.0,79.0,72.5,-99.9,99,93,84,0.00,40.00,12,3,23,0.00
2013-7-21,84.0,75.8,69.0,76.0,71.7,67.0,99,87,69,0.00,40.00,9,2,13,0.00
2013-7-22,77.0,70.0,66.0,75.0,68.8,65.0,99,95,85,0.00,40.00,4,0,7,0.00
2013-7-23,86.0,74.2,65.0,76.0,70.5,65.0,99,89,57,0.00,40.00,12,2,24,0.00
2013-7-24,70.0,65.7,59.0,67.0,58.1,54.0,90,76,63,0.00,40.00,11,6,22,0.00
2013-7-25,76.0,64.8,55.0,58.0,54.7,51.0,98,72,46,0.00,40.00,10,3,20,0.00
2013-7-26,83.0,69.9,56.0,63.0,58.7,55.0,98,70,45,0.00,40.00,6,2,12,0.00
2013-7-27,73.0,68.9,65.0,71.0,66.9,63.0,99,93,77,0.00,40.00,11,5,20,0.00
2013-7-28,72.0,64.6,56.0,66.0,57.7,54.0,99,80,54,0.00,40.00,12,4,18,0.00
2013-7-29,71.0,62.6,57.0,65.0,59.2,56.0,98,89,62,0.00,40.00,8,3,16,0.00
2013-7-30,77.0,66.3,56.0,67.0,60.8,56.0,99,84,56,0.00,40.00,6,1,10,0.00
2013-7-31,80.0,71.2,64.0,70.0,66.2,63.0,97,84,66,0.00,40.00,9,4,16,0.00
2013-8-1,81.0,72.5,67.0,71.0,66.5,60.0,99,83,54,0.00,40.00,10,3,15,0.00
2013-8-2,75.0,68.5,61.0,68.0,63.9,60.0,99,86,61,0.00,40.00,9,4,17,0.00
2013-8-3,79.0,72.6,66.0,70.0,63.0,56.0,99,74,44,0.00,40.00,8,3,14,0.00
2013-8-4,73.0,67.0,60.0,64.0,60.1,55.0,99,79,60,0.00,40.00,11,4,20,0.00
2013-8-5,74.0,66.1,60.0,62.0,57.5,53.0,95,74,51,0.00,40.00,4,0,9,0.00
2013-8-6,82.0,71.4,63.0,66.0,62.6,61.0,93,75,50,0.00,40.00,8,3,12,0.00
2013-8-7,82.0,73.7,68.0,76.0,70.4,65.0,99,89,73,0.00,40.00,10,5,16,0.00
2013-8-8,82.0,74.6,71.0,79.0,73.8,70.0,99,97,87,0.00,40.00,9,4,12,0.00
2013-8-9,79.0,71.4,66.0,71.0,63.0,52.0,99,77,40,0.00,40.00,7,2,13,0.00
2013-8-10,78.0,71.3,64.0,66.0,62.1,58.0,96,72,62,0.00,40.00,8,3,13,0.00
2013-8-11,83.0,72.5,64.0,65.0,61.7,58.0,93,70,49,0.00,40.00,9,2,13,0.00
2013-8-21,88.0,77.5,65.0,72.0,66.3,63.0,97,71,44,0.00,40.00,6,2,12,0.00
2013-8-22,87.0,76.8,70.0,76.0,72.8,69.0,99,87,65,0.00,40.00,7,3,12,0.00
2013-8-23,82.0,74.4,62.0,74.0,66.1,57.0,99,77,47,0.00,40.00,9,3,15,0.00
2013-8-24,81.0,68.0,55.0,64.0,58.0,54.0,99,74,44,0.00,40.00,9,2,15,0.00
2013-8-25,87.0,70.9,56.0,65.0,58.1,-99.9,99,70,42,0.00,40.00,7,2,14,0.00
2013-8-26,87.0,78.2,69.0,73.0,66.9,63.0,81,69,53,0.00,40.00,7,5,17,0.00
2013-8-27,79.0,75.9,73.0,77.0,74.0,72.0,99,93,84,0.00,40.00,6,3,12,0.00
2013-9-16,66.0,61.0,53.0,62.0,58.2,50.0,99,91,77,0.00,40.00,0,0,0,0.00
2013-9-17,72.0,58.2,44.0,55.0,49.4,44.0,98,75,45,0.00,40.00,0,0,0,0.00
2013-9-18,57.0,55.3,54.0,54.0,50.2,48.0,91,82,70,0.00,40.00,0,0,0,0.00
2013-9-19,81.0,69.6,62.0,72.0,67.7,61.0,99,94,75,0.00,40.00,0,0,0,0.00
2013-9-20,85.0,74.7,67.0,77.0,71.9,67.0,99,91,72,0.00,40.00,0,0,0,0.00
2013-9-21,70.0,65.0,60.0,70.0,63.9,59.0,99,96,73,0.00,40.00,0,0,0,0.00
2013-9-22,61.0,56.1,55.0,57.0,47.4,-99.9,87,76,64,0.00,40.00,0,0,0,0.00
2013-11-27,34.0,28.9,25.0,34.0,24.8,17.0,99,85,67,0.00,40.00,15,9,21,0.00
2013-11-28,30.0,25.4,20.0,26.0,20.6,17.0,95,81,69,0.00,40.00,8,4,14,0.00
2013-11-29,34.0,28.5,24.0,30.0,24.8,22.0,93,86,66,0.00,40.00,5,1,8,0.00
2013-11-30,42.0,33.5,28.0,32.0,25.0,-99.9,88,75,60,0.00,40.00,11,6,17,0.00
2013-12-1,43.0,38.9,33.0,35.0,33.4,30.0,94,80,71,0.00,40.00,6,3,11,0.00
2013-12-2,42.0,37.3,33.0,39.0,36.1,33.0,99,95,84,0.00,40.00,5,1,8,0.00
2013-12-3,46.0,37.0,32.0,42.0,36.0,32.0,99,95,85,0.00,40.00,5,2,8,0.00
2013-12-8,30.0,25.0,20.0,29.0,21.1,17.0,98,85,69,0.00,40.00,8,4,16,0.00
2013-12-9,35.0,31.2,26.0,34.0,29.7,23.0,99,93,86,0.00,40.00,12,8,22,0.00
2013-12-10,28.0,23.6,21.0,21.0,16.2,8.0,87,74,44,0.00,40.00,12,6,23,0.00
2013-12-11,26.0,21.0,17.0,25.0,19.0,14.0,99,91,79,0.00,40.00,11,6,20,0.00
2013-12-12,20.0,15.9,9.0,14.0,8.4,4.0,96,73,49,0.00,40.00,11,7,20,0.00
2013-12-13,33.0,25.2,18.0,25.0,17.4,7.0,89,72,60,0.00,40.00,8,4,16,0.00
2013-12-14,33.0,29.0,26.0,33.0,26.8,-99.9,99,96,87,0.00,40.00,6,3,9,0.00